sensor_id;sensor_type;location;lat;lon;timestamp;P1;durP1;ratioP1;P2;durP2;ratioP2
13366;SDS011;6752;52.612;13.630;2023-04-24T00:02:02;16.52;;;12.13;;
13366;SDS011;6752;52.612;13.630;2023-04-24T00:07:04;13.75;;;11.40;;
13366;SDS011;6752;52.612;13.630;2023-04-24T00:12:07;14.13;;;11.82;;
13366;SDS011;6752;52.612;13.630;2023-04-24T00:17:09;13.52;;;10.80;;
13366;SDS011;6752;52.612;13.630;2023-04-24T00:22:11;12.15;;;10.13;;
13366;SDS011;6752;52.612;13.630;2023-04-24T00:27:14;12.52;;;9.88;;
13366;SDS011;6752;52.612;13.630;2023-04-24T00:32:16;12.60;;;10.38;;
13366;SDS011;6752;52.612;13.630;2023-04-24T00:37:18;14.15;;;11.15;;
13366;SDS011;6752;52.612;13.630;2023-04-24T00:42:21;14.87;;;10.15;;
13366;SDS011;6752;52.612;13.630;2023-04-24T00:47:23;12.00;;;9.70;;
13366;SDS011;6752;52.612;13.630;2023-04-24T00:57:27;14.98;;;10.30;;
13366;SDS011;6752;52.612;13.630;2023-04-24T01:02:30;16.73;;;12.35;;
13366;SDS011;6752;52.612;13.630;2023-04-24T01:07:32;13.57;;;10.85;;
13366;SDS011;6752;52.612;13.630;2023-04-24T01:12:35;13.38;;;10.75;;
13366;SDS011;6752;52.612;13.630;2023-04-24T01:17:37;12.68;;;10.68;;
13366;SDS011;6752;52.612;13.630;2023-04-24T01:22:39;14.80;;;12.25;;
13366;SDS011;6752;52.612;13.630;2023-04-24T01:27:42;14.25;;;11.25;;
13366;SDS011;6752;52.612;13.630;2023-04-24T01:32:44;16.83;;;11.30;;
13366;SDS011;6752;52.612;13.630;2023-04-24T01:37:46;12.97;;;11.67;;
13366;SDS011;6752;52.612;13.630;2023-04-24T01:42:49;13.82;;;10.93;;
13366;SDS011;6752;52.612;13.630;2023-04-24T01:47:51;16.37;;;12.18;;
13366;SDS011;6752;52.612;13.630;2023-04-24T01:52:54;16.90;;;13.60;;
13366;SDS011;6752;52.612;13.630;2023-04-24T01:57:56;13.62;;;11.40;;
13366;SDS011;6752;52.612;13.630;2023-04-24T02:02:58;16.30;;;12.00;;
13366;SDS011;6752;52.612;13.630;2023-04-24T02:08:01;15.02;;;12.27;;
13366;SDS011;6752;52.612;13.630;2023-04-24T02:13:03;16.08;;;12.07;;
13366;SDS011;6752;52.612;13.630;2023-04-24T02:18:05;16.40;;;12.32;;
13366;SDS011;6752;52.612;13.630;2023-04-24T02:23:08;16.25;;;12.13;;
13366;SDS011;6752;52.612;13.630;2023-04-24T02:28:10;17.70;;;11.77;;
13366;SDS011;6752;52.612;13.630;2023-04-24T02:33:12;15.25;;;11.50;;
13366;SDS011;6752;52.612;13.630;2023-04-24T02:38:15;12.27;;;10.32;;
13366;SDS011;6752;52.612;13.630;2023-04-24T02:43:17;14.43;;;11.77;;
13366;SDS011;6752;52.612;13.630;2023-04-24T02:48:20;14.65;;;11.77;;
13366;SDS011;6752;52.612;13.630;2023-04-24T02:53:22;13.73;;;10.77;;
13366;SDS011;6752;52.612;13.630;2023-04-24T02:58:24;17.37;;;12.05;;
13366;SDS011;6752;52.612;13.630;2023-04-24T03:03:27;14.87;;;11.27;;
13366;SDS011;6752;52.612;13.630;2023-04-24T03:08:29;15.18;;;11.45;;
13366;SDS011;6752;52.612;13.630;2023-04-24T03:13:31;13.60;;;11.47;;
13366;SDS011;6752;52.612;13.630;2023-04-24T03:18:34;14.63;;;10.98;;
13366;SDS011;6752;52.612;13.630;2023-04-24T03:23:36;12.02;;;10.25;;
13366;SDS011;6752;52.612;13.630;2023-04-24T03:28:38;15.07;;;12.37;;
13366;SDS011;6752;52.612;13.630;2023-04-24T03:33:41;13.05;;;11.18;;
13366;SDS011;6752;52.612;13.630;2023-04-24T03:38:43;17.58;;;12.85;;
13366;SDS011;6752;52.612;13.630;2023-04-24T03:43:46;13.25;;;11.23;;
13366;SDS011;6752;52.612;13.630;2023-04-24T03:48:48;11.12;;;9.18;;
13366;SDS011;6752;52.612;13.630;2023-04-24T03:53:50;11.73;;;9.88;;
13366;SDS011;6752;52.612;13.630;2023-04-24T03:58:53;11.93;;;10.20;;
13366;SDS011;6752;52.612;13.630;2023-04-24T04:03:55;13.25;;;9.90;;
13366;SDS011;6752;52.612;13.630;2023-04-24T04:08:58;11.17;;;9.97;;
13366;SDS011;6752;52.612;13.630;2023-04-24T04:14:00;13.88;;;10.40;;
13366;SDS011;6752;52.612;13.630;2023-04-24T04:24:04;14.35;;;11.02;;
13366;SDS011;6752;52.612;13.630;2023-04-24T04:29:06;10.68;;;8.90;;
13366;SDS011;6752;52.612;13.630;2023-04-24T04:34:09;12.63;;;10.63;;
13366;SDS011;6752;52.612;13.630;2023-04-24T04:44:13;11.60;;;9.20;;
13366;SDS011;6752;52.612;13.630;2023-04-24T04:49:15;13.68;;;9.48;;
13366;SDS011;6752;52.612;13.630;2023-04-24T04:54:18;12.68;;;10.65;;
13366;SDS011;6752;52.612;13.630;2023-04-24T04:59:20;15.65;;;12.32;;
13366;SDS011;6752;52.612;13.630;2023-04-24T05:04:22;12.95;;;11.10;;
13366;SDS011;6752;52.612;13.630;2023-04-24T05:14:27;17.45;;;12.20;;
13366;SDS011;6752;52.612;13.630;2023-04-24T05:19:29;12.85;;;10.00;;
13366;SDS011;6752;52.612;13.630;2023-04-24T05:24:35;17.60;;;11.88;;
13366;SDS011;6752;52.612;13.630;2023-04-24T05:29:37;12.90;;;10.80;;
13366;SDS011;6752;52.612;13.630;2023-04-24T05:34:39;13.35;;;10.45;;
13366;SDS011;6752;52.612;13.630;2023-04-24T05:39:41;14.35;;;10.80;;
13366;SDS011;6752;52.612;13.630;2023-04-24T05:49:46;13.95;;;10.77;;
13366;SDS011;6752;52.612;13.630;2023-04-24T05:54:48;13.93;;;9.18;;
13366;SDS011;6752;52.612;13.630;2023-04-24T05:59:50;12.07;;;8.65;;
13366;SDS011;6752;52.612;13.630;2023-04-24T06:04:53;10.48;;;7.82;;
13366;SDS011;6752;52.612;13.630;2023-04-24T06:09:55;11.50;;;6.87;;
13366;SDS011;6752;52.612;13.630;2023-04-24T06:14:57;10.05;;;5.28;;
13366;SDS011;6752;52.612;13.630;2023-04-24T06:20:00;8.23;;;5.72;;
13366;SDS011;6752;52.612;13.630;2023-04-24T06:25:02;8.00;;;4.70;;
13366;SDS011;6752;52.612;13.630;2023-04-24T06:30:04;6.68;;;4.32;;
13366;SDS011;6752;52.612;13.630;2023-04-24T06:35:07;6.25;;;3.35;;
13366;SDS011;6752;52.612;13.630;2023-04-24T06:40:09;6.93;;;3.75;;
13366;SDS011;6752;52.612;13.630;2023-04-24T06:45:12;7.20;;;3.70;;
13366;SDS011;6752;52.612;13.630;2023-04-24T06:50:14;5.32;;;2.90;;
13366;SDS011;6752;52.612;13.630;2023-04-24T06:55:16;7.47;;;3.22;;
13366;SDS011;6752;52.612;13.630;2023-04-24T07:00:19;5.72;;;2.62;;
13366;SDS011;6752;52.612;13.630;2023-04-24T07:05:21;5.12;;;2.85;;
13366;SDS011;6752;52.612;13.630;2023-04-24T07:10:24;5.97;;;2.60;;
13366;SDS011;6752;52.612;13.630;2023-04-24T07:15:26;6.03;;;2.60;;
13366;SDS011;6752;52.612;13.630;2023-04-24T07:20:28;4.22;;;1.95;;
13366;SDS011;6752;52.612;13.630;2023-04-24T07:25:30;4.55;;;2.50;;
13366;SDS011;6752;52.612;13.630;2023-04-24T07:30:33;5.55;;;2.12;;
13366;SDS011;6752;52.612;13.630;2023-04-24T07:35:35;5.22;;;2.20;;
13366;SDS011;6752;52.612;13.630;2023-04-24T07:40:38;6.30;;;1.92;;
13366;SDS011;6752;52.612;13.630;2023-04-24T07:45:40;5.28;;;1.45;;
13366;SDS011;6752;52.612;13.630;2023-04-24T07:50:42;4.93;;;1.60;;
13366;SDS011;6752;52.612;13.630;2023-04-24T07:55:45;5.37;;;2.00;;
13366;SDS011;6752;52.612;13.630;2023-04-24T08:00:47;3.28;;;1.20;;
13366;SDS011;6752;52.612;13.630;2023-04-24T08:05:49;2.85;;;1.15;;
13366;SDS011;6752;52.612;13.630;2023-04-24T08:10:52;4.37;;;1.30;;
13366;SDS011;6752;52.612;13.630;2023-04-24T08:15:54;3.17;;;1.00;;
13366;SDS011;6752;52.612;13.630;2023-04-24T08:20:56;4.18;;;1.10;;
13366;SDS011;6752;52.612;13.630;2023-04-24T08:25:59;3.28;;;0.95;;
13366;SDS011;6752;52.612;13.630;2023-04-24T08:31:01;4.32;;;0.88;;
13366;SDS011;6752;52.612;13.630;2023-04-24T08:36:04;1.73;;;0.68;;
13366;SDS011;6752;52.612;13.630;2023-04-24T08:41:06;2.60;;;0.70;;
13366;SDS011;6752;52.612;13.630;2023-04-24T08:51:10;3.25;;;0.70;;
13366;SDS011;6752;52.612;13.630;2023-04-24T08:56:12;1.92;;;0.60;;
13366;SDS011;6752;52.612;13.630;2023-04-24T09:01:15;1.17;;;0.40;;
13366;SDS011;6752;52.612;13.630;2023-04-24T09:06:17;2.35;;;0.70;;
13366;SDS011;6752;52.612;13.630;2023-04-24T09:11:19;2.47;;;0.60;;
13366;SDS011;6752;52.612;13.630;2023-04-24T09:16:22;4.10;;;0.77;;
13366;SDS011;6752;52.612;13.630;2023-04-24T09:21:24;3.72;;;0.80;;
13366;SDS011;6752;52.612;13.630;2023-04-24T09:26:29;3.87;;;0.70;;
13366;SDS011;6752;52.612;13.630;2023-04-24T09:31:29;2.75;;;0.60;;
13366;SDS011;6752;52.612;13.630;2023-04-24T09:36:38;3.17;;;0.52;;
13366;SDS011;6752;52.612;13.630;2023-04-24T09:52:06;3.03;;;0.90;;
13366;SDS011;6752;52.612;13.630;2023-04-24T09:57:07;4.28;;;0.88;;
13366;SDS011;6752;52.612;13.630;2023-04-24T10:02:18;10.63;;;1.30;;
13366;SDS011;6752;52.612;13.630;2023-04-24T10:07:20;5.80;;;1.00;;
13366;SDS011;6752;52.612;13.630;2023-04-24T10:12:23;2.22;;;0.60;;
13366;SDS011;6752;52.612;13.630;2023-04-24T10:17:25;2.92;;;0.80;;
13366;SDS011;6752;52.612;13.630;2023-04-24T10:22:27;3.47;;;0.73;;
13366;SDS011;6752;52.612;13.630;2023-04-24T10:27:30;2.05;;;0.50;;
13366;SDS011;6752;52.612;13.630;2023-04-24T10:32:32;5.18;;;0.88;;
13366;SDS011;6752;52.612;13.630;2023-04-24T10:37:39;3.58;;;0.80;;
13366;SDS011;6752;52.612;13.630;2023-04-24T10:42:39;1.77;;;0.65;;
13366;SDS011;6752;52.612;13.630;2023-04-24T10:47:42;5.15;;;0.90;;
13366;SDS011;6752;52.612;13.630;2023-04-24T10:52:47;3.12;;;0.85;;
13366;SDS011;6752;52.612;13.630;2023-04-24T11:03:50;1.83;;;0.80;;
13366;SDS011;6752;52.612;13.630;2023-04-24T11:08:15;2.23;;;0.60;;
13366;SDS011;6752;52.612;13.630;2023-04-24T11:18:19;2.72;;;0.85;;
13366;SDS011;6752;52.612;13.630;2023-04-24T11:23:21;2.15;;;0.68;;
13366;SDS011;6752;52.612;13.630;2023-04-24T11:28:23;7.55;;;0.80;;
13366;SDS011;6752;52.612;13.630;2023-04-24T11:33:26;4.82;;;0.70;;
13366;SDS011;6752;52.612;13.630;2023-04-24T11:38:28;3.53;;;0.80;;
13366;SDS011;6752;52.612;13.630;2023-04-24T11:43:31;3.03;;;0.60;;
13366;SDS011;6752;52.612;13.630;2023-04-24T11:48:36;6.40;;;0.75;;
13366;SDS011;6752;52.612;13.630;2023-04-24T11:53:38;2.47;;;0.95;;
13366;SDS011;6752;52.612;13.630;2023-04-24T11:58:40;3.40;;;1.23;;
13366;SDS011;6752;52.612;13.630;2023-04-24T12:08:47;4.37;;;1.33;;
13366;SDS011;6752;52.612;13.630;2023-04-24T12:13:50;2.95;;;0.98;;
13366;SDS011;6752;52.612;13.630;2023-04-24T12:18:52;3.67;;;0.88;;
13366;SDS011;6752;52.612;13.630;2023-04-24T12:23:54;2.97;;;0.70;;
13366;SDS011;6752;52.612;13.630;2023-04-24T12:29:01;3.67;;;0.60;;
13366;SDS011;6752;52.612;13.630;2023-04-24T12:33:59;3.92;;;0.80;;
13366;SDS011;6752;52.612;13.630;2023-04-24T12:39:02;4.05;;;0.68;;
13366;SDS011;6752;52.612;13.630;2023-04-24T12:44:09;4.18;;;0.80;;
13366;SDS011;6752;52.612;13.630;2023-04-24T12:49:06;4.30;;;1.05;;
13366;SDS011;6752;52.612;13.630;2023-04-24T12:54:09;4.03;;;0.80;;
13366;SDS011;6752;52.612;13.630;2023-04-24T12:59:11;2.25;;;0.80;;
13366;SDS011;6752;52.612;13.630;2023-04-24T13:04:13;6.50;;;1.00;;
13366;SDS011;6752;52.612;13.630;2023-04-24T13:09:16;4.32;;;0.75;;
13366;SDS011;6752;52.612;13.630;2023-04-24T13:14:18;4.40;;;0.85;;
13366;SDS011;6752;52.612;13.630;2023-04-24T13:19:21;3.47;;;0.62;;
13366;SDS011;6752;52.612;13.630;2023-04-24T13:29:27;2.50;;;0.70;;
13366;SDS011;6752;52.612;13.630;2023-04-24T13:34:30;3.67;;;0.60;;
13366;SDS011;6752;52.612;13.630;2023-04-24T13:39:32;3.12;;;0.70;;
13366;SDS011;6752;52.612;13.630;2023-04-24T13:49:36;3.28;;;0.82;;
13366;SDS011;6752;52.612;13.630;2023-04-24T13:54:39;5.00;;;0.80;;
13366;SDS011;6752;52.612;13.630;2023-04-24T13:59:41;2.17;;;0.55;;
13366;SDS011;6752;52.612;13.630;2023-04-24T14:04:43;4.37;;;0.73;;
13366;SDS011;6752;52.612;13.630;2023-04-24T14:09:46;3.08;;;0.60;;
13366;SDS011;6752;52.612;13.630;2023-04-24T14:14:48;6.82;;;0.95;;
13366;SDS011;6752;52.612;13.630;2023-04-24T14:19:50;2.45;;;0.60;;
13366;SDS011;6752;52.612;13.630;2023-04-24T14:24:55;3.60;;;0.88;;
13366;SDS011;6752;52.612;13.630;2023-04-24T14:29:57;2.58;;;0.70;;
13366;SDS011;6752;52.612;13.630;2023-04-24T14:34:59;2.53;;;0.80;;
13366;SDS011;6752;52.612;13.630;2023-04-24T14:40:02;3.25;;;0.65;;
13366;SDS011;6752;52.612;13.630;2023-04-24T14:45:04;1.62;;;0.75;;
13366;SDS011;6752;52.612;13.630;2023-04-24T14:50:07;3.15;;;0.57;;
13366;SDS011;6752;52.612;13.630;2023-04-24T14:55:09;4.07;;;0.70;;
13366;SDS011;6752;52.612;13.630;2023-04-24T15:00:11;1.90;;;0.70;;
13366;SDS011;6752;52.612;13.630;2023-04-24T15:05:14;4.85;;;0.95;;
13366;SDS011;6752;52.612;13.630;2023-04-24T15:10:16;2.78;;;0.73;;
13366;SDS011;6752;52.612;13.630;2023-04-24T15:15:19;1.70;;;0.80;;
13366;SDS011;6752;52.612;13.630;2023-04-24T15:20:21;1.95;;;0.85;;
13366;SDS011;6752;52.612;13.630;2023-04-24T15:25:23;3.12;;;0.88;;
13366;SDS011;6752;52.612;13.630;2023-04-24T15:30:26;3.65;;;0.93;;
13366;SDS011;6752;52.612;13.630;2023-04-24T15:35:28;3.58;;;0.80;;
13366;SDS011;6752;52.612;13.630;2023-04-24T15:40:30;5.22;;;1.20;;
13366;SDS011;6752;52.612;13.630;2023-04-24T15:45:33;6.03;;;1.23;;
13366;SDS011;6752;52.612;13.630;2023-04-24T15:50:35;4.18;;;1.00;;
13366;SDS011;6752;52.612;13.630;2023-04-24T15:55:37;2.87;;;1.12;;
13366;SDS011;6752;52.612;13.630;2023-04-24T16:00:40;4.25;;;1.23;;
13366;SDS011;6752;52.612;13.630;2023-04-24T16:05:42;7.10;;;1.33;;
13366;SDS011;6752;52.612;13.630;2023-04-24T16:15:46;2.60;;;0.95;;
13366;SDS011;6752;52.612;13.630;2023-04-24T16:20:49;3.97;;;1.40;;
13366;SDS011;6752;52.612;13.630;2023-04-24T16:25:51;2.78;;;1.00;;
13366;SDS011;6752;52.612;13.630;2023-04-24T16:30:53;3.72;;;1.42;;
13366;SDS011;6752;52.612;13.630;2023-04-24T16:35:56;3.12;;;1.25;;
13366;SDS011;6752;52.612;13.630;2023-04-24T16:40:58;3.58;;;0.90;;
13366;SDS011;6752;52.612;13.630;2023-04-24T16:46:01;3.25;;;1.55;;
13366;SDS011;6752;52.612;13.630;2023-04-24T16:51:03;3.78;;;1.20;;
13366;SDS011;6752;52.612;13.630;2023-04-24T16:56:05;2.97;;;1.00;;
13366;SDS011;6752;52.612;13.630;2023-04-24T17:01:08;4.85;;;1.27;;
13366;SDS011;6752;52.612;13.630;2023-04-24T17:06:10;5.15;;;1.30;;
13366;SDS011;6752;52.612;13.630;2023-04-24T17:11:12;6.90;;;1.45;;
13366;SDS011;6752;52.612;13.630;2023-04-24T17:16:15;5.00;;;1.35;;
13366;SDS011;6752;52.612;13.630;2023-04-24T17:21:17;7.62;;;1.30;;
13366;SDS011;6752;52.612;13.630;2023-04-24T17:26:19;7.00;;;2.22;;
13366;SDS011;6752;52.612;13.630;2023-04-24T17:31:22;5.30;;;1.75;;
13366;SDS011;6752;52.612;13.630;2023-04-24T17:36:24;10.63;;;5.40;;
13366;SDS011;6752;52.612;13.630;2023-04-24T17:41:26;5.85;;;2.10;;
13366;SDS011;6752;52.612;13.630;2023-04-24T17:46:29;7.82;;;2.85;;
13366;SDS011;6752;52.612;13.630;2023-04-24T17:51:31;4.55;;;2.12;;
13366;SDS011;6752;52.612;13.630;2023-04-24T17:56:33;7.70;;;2.65;;
13366;SDS011;6752;52.612;13.630;2023-04-24T18:01:36;3.62;;;2.08;;
13366;SDS011;6752;52.612;13.630;2023-04-24T18:06:38;6.22;;;2.20;;
13366;SDS011;6752;52.612;13.630;2023-04-24T18:11:40;4.70;;;2.22;;
13366;SDS011;6752;52.612;13.630;2023-04-24T18:16:43;9.20;;;2.50;;
13366;SDS011;6752;52.612;13.630;2023-04-24T18:21:45;5.80;;;2.35;;
13366;SDS011;6752;52.612;13.630;2023-04-24T18:26:48;5.00;;;3.15;;
13366;SDS011;6752;52.612;13.630;2023-04-24T18:31:50;4.72;;;2.20;;
13366;SDS011;6752;52.612;13.630;2023-04-24T18:36:52;8.88;;;2.40;;
13366;SDS011;6752;52.612;13.630;2023-04-24T18:41:55;7.10;;;1.95;;
13366;SDS011;6752;52.612;13.630;2023-04-24T18:46:57;3.72;;;1.55;;
13366;SDS011;6752;52.612;13.630;2023-04-24T18:51:59;3.40;;;1.20;;
13366;SDS011;6752;52.612;13.630;2023-04-24T18:57:02;1.40;;;1.30;;
13366;SDS011;6752;52.612;13.630;2023-04-24T19:02:04;2.22;;;1.60;;
13366;SDS011;6752;52.612;13.630;2023-04-24T19:07:06;3.53;;;1.58;;
13366;SDS011;6752;52.612;13.630;2023-04-24T19:12:09;2.05;;;1.70;;
13366;SDS011;6752;52.612;13.630;2023-04-24T19:17:11;4.50;;;1.70;;
13366;SDS011;6752;52.612;13.630;2023-04-24T19:22:13;2.65;;;1.90;;
13366;SDS011;6752;52.612;13.630;2023-04-24T19:27:16;2.50;;;2.00;;
13366;SDS011;6752;52.612;13.630;2023-04-24T19:32:18;4.50;;;1.80;;
13366;SDS011;6752;52.612;13.630;2023-04-24T19:37:20;3.62;;;1.85;;
13366;SDS011;6752;52.612;13.630;2023-04-24T19:42:23;5.25;;;2.17;;
13366;SDS011;6752;52.612;13.630;2023-04-24T19:47:25;2.87;;;2.10;;
13366;SDS011;6752;52.612;13.630;2023-04-24T19:57:29;3.10;;;2.25;;
13366;SDS011;6752;52.612;13.630;2023-04-24T20:02:32;5.87;;;2.42;;
13366;SDS011;6752;52.612;13.630;2023-04-24T20:07:34;5.80;;;2.87;;
13366;SDS011;6752;52.612;13.630;2023-04-24T20:17:38;4.65;;;3.00;;
13366;SDS011;6752;52.612;13.630;2023-04-24T20:22:41;4.80;;;3.33;;
13366;SDS011;6752;52.612;13.630;2023-04-24T20:27:43;7.12;;;3.20;;
13366;SDS011;6752;52.612;13.630;2023-04-24T20:32:45;5.87;;;4.45;;
13366;SDS011;6752;52.612;13.630;2023-04-24T20:37:48;4.30;;;3.03;;
13366;SDS011;6752;52.612;13.630;2023-04-24T20:42:50;5.80;;;3.10;;
13366;SDS011;6752;52.612;13.630;2023-04-24T20:47:52;5.50;;;3.60;;
13366;SDS011;6752;52.612;13.630;2023-04-24T20:52:55;6.55;;;4.05;;
13366;SDS011;6752;52.612;13.630;2023-04-24T20:57:57;6.50;;;3.87;;
13366;SDS011;6752;52.612;13.630;2023-04-24T21:02:59;8.23;;;4.28;;
13366;SDS011;6752;52.612;13.630;2023-04-24T21:08:02;7.15;;;4.57;;
13366;SDS011;6752;52.612;13.630;2023-04-24T21:13:04;8.00;;;4.65;;
13366;SDS011;6752;52.612;13.630;2023-04-24T21:18:07;7.90;;;4.23;;
13366;SDS011;6752;52.612;13.630;2023-04-24T21:23:09;7.70;;;4.37;;
13366;SDS011;6752;52.612;13.630;2023-04-24T21:28:11;7.57;;;4.65;;
13366;SDS011;6752;52.612;13.630;2023-04-24T21:33:14;7.62;;;4.32;;
13366;SDS011;6752;52.612;13.630;2023-04-24T21:38:16;7.62;;;4.90;;
13366;SDS011;6752;52.612;13.630;2023-04-24T21:43:19;10.65;;;6.10;;
13366;SDS011;6752;52.612;13.630;2023-04-24T21:48:21;14.00;;;5.90;;
13366;SDS011;6752;52.612;13.630;2023-04-24T21:53:23;10.60;;;6.63;;
13366;SDS011;6752;52.612;13.630;2023-04-24T21:58:25;15.27;;;7.53;;
13366;SDS011;6752;52.612;13.630;2023-04-24T22:03:28;7.75;;;5.82;;
13366;SDS011;6752;52.612;13.630;2023-04-24T22:08:30;9.43;;;6.40;;
13366;SDS011;6752;52.612;13.630;2023-04-24T22:13:32;8.70;;;6.32;;
13366;SDS011;6752;52.612;13.630;2023-04-24T22:18:35;9.93;;;6.37;;
13366;SDS011;6752;52.612;13.630;2023-04-24T22:23:40;11.82;;;6.70;;
13366;SDS011;6752;52.612;13.630;2023-04-24T22:28:42;12.60;;;7.43;;
13366;SDS011;6752;52.612;13.630;2023-04-24T22:33:44;12.63;;;8.45;;
13366;SDS011;6752;52.612;13.630;2023-04-24T22:38:49;10.88;;;7.72;;
13366;SDS011;6752;52.612;13.630;2023-04-24T22:43:52;11.10;;;8.52;;
13366;SDS011;6752;52.612;13.630;2023-04-24T22:48:54;11.50;;;7.87;;
13366;SDS011;6752;52.612;13.630;2023-04-24T22:53:57;11.30;;;7.40;;
13366;SDS011;6752;52.612;13.630;2023-04-24T22:58:59;12.13;;;7.07;;
13366;SDS011;6752;52.612;13.630;2023-04-24T23:04:04;11.65;;;7.37;;
13366;SDS011;6752;52.612;13.630;2023-04-24T23:09:07;17.85;;;8.02;;
13366;SDS011;6752;52.612;13.630;2023-04-24T23:14:09;11.60;;;7.03;;
13366;SDS011;6752;52.612;13.630;2023-04-24T23:19:11;15.73;;;6.55;;
13366;SDS011;6752;52.612;13.630;2023-04-24T23:24:14;9.80;;;7.07;;
13366;SDS011;6752;52.612;13.630;2023-04-24T23:29:16;11.55;;;7.93;;
13366;SDS011;6752;52.612;13.630;2023-04-24T23:34:18;11.50;;;8.10;;
13366;SDS011;6752;52.612;13.630;2023-04-24T23:39:21;11.53;;;7.97;;
13366;SDS011;6752;52.612;13.630;2023-04-24T23:44:23;14.38;;;7.62;;
13366;SDS011;6752;52.612;13.630;2023-04-24T23:49:26;9.98;;;7.07;;
13366;SDS011;6752;52.612;13.630;2023-04-24T23:54:28;10.35;;;7.30;;
13366;SDS011;6752;52.612;13.630;2023-04-24T23:59:30;14.95;;;8.18;;
